createdAt,value
2018-03-20T00:00:05.989Z,16.50
2018-03-20T00:01:05.955Z,20.70
2018-03-20T00:02:05.924Z,19.90
2018-03-20T00:03:05.900Z,17.70
2018-03-20T00:04:05.867Z,16.50
2018-03-20T00:05:05.847Z,18.10
2018-03-20T00:06:05.809Z,19.30
2018-03-20T00:07:05.785Z,16.90
2018-03-20T00:08:05.753Z,19.00
2018-03-20T00:09:05.725Z,20.50
2018-03-20T00:10:05.699Z,20.90
2018-03-20T00:11:05.673Z,17.60
2018-03-20T00:12:05.642Z,16.50
2018-03-20T00:13:05.609Z,18.10
2018-03-20T00:14:05.574Z,15.70
2018-03-20T00:15:05.573Z,15.50
2018-03-20T00:16:05.517Z,17.20
2018-03-20T00:17:05.500Z,18.20
2018-03-20T00:18:05.467Z,15.10
2018-03-20T00:19:05.436Z,15.30
2018-03-20T00:20:05.410Z,16.20
2018-03-20T00:21:05.374Z,15.60
2018-03-20T00:22:05.341Z,14.70
2018-03-20T00:23:05.322Z,15.50
2018-03-20T00:24:05.298Z,16.80
2018-03-20T00:25:05.262Z,14.10
2018-03-20T00:26:05.236Z,15.80
2018-03-20T00:27:05.202Z,14.10
2018-03-20T00:28:05.173Z,16.40
2018-03-20T00:29:05.148Z,15.70
2018-03-20T00:30:05.114Z,15.80
2018-03-20T00:31:05.087Z,14.20
2018-03-20T00:32:05.059Z,16.40
2018-03-20T00:33:05.023Z,16.60
2018-03-20T00:34:05.000Z,14.90
2018-03-20T00:35:04.967Z,17.00
2018-03-20T00:36:04.945Z,15.70
2018-03-20T00:37:04.905Z,15.80
2018-03-20T00:38:04.881Z,17.20
2018-03-20T00:39:04.847Z,16.40
2018-03-20T00:40:04.826Z,16.30
2018-03-20T00:41:04.796Z,15.80
2018-03-20T00:42:04.755Z,14.70
2018-03-20T00:43:04.731Z,18.90
2018-03-20T00:44:04.702Z,15.30
2018-03-20T00:45:04.680Z,16.60
2018-03-20T00:46:04.645Z,16.40
2018-03-20T00:47:04.610Z,16.80
2018-03-20T00:48:04.590Z,14.50
2018-03-20T00:49:04.550Z,15.50
2018-03-20T00:50:04.523Z,15.80
2018-03-20T00:51:04.500Z,16.00
2018-03-20T00:52:04.479Z,16.60
2018-03-20T00:53:04.444Z,16.10
2018-03-20T00:54:04.406Z,15.00
2018-03-20T00:55:04.387Z,18.60
2018-03-20T00:56:04.360Z,15.30
2018-03-20T00:57:04.317Z,16.10
2018-03-20T00:58:04.296Z,14.70
2018-03-20T00:59:04.262Z,14.70
2018-03-20T01:00:04.234Z,15.20
2018-03-20T01:01:04.210Z,16.60
2018-03-20T01:02:04.175Z,15.50
2018-03-20T01:03:04.149Z,15.60
2018-03-20T01:04:04.126Z,15.70
2018-03-20T01:05:04.088Z,16.60
2018-03-20T01:06:04.055Z,14.90
2018-03-20T01:07:04.027Z,16.50
2018-03-20T01:08:04.002Z,15.30
2018-03-20T01:09:03.970Z,15.60
2018-03-20T01:10:03.942Z,15.90
2018-03-20T01:11:03.911Z,18.20
2018-03-20T01:12:03.877Z,17.10
2018-03-20T01:13:03.857Z,17.60
2018-03-20T01:14:03.821Z,17.90
2018-03-20T01:15:03.795Z,17.80
2018-03-20T01:16:03.772Z,17.60
2018-03-20T01:17:03.732Z,17.00
2018-03-20T01:18:03.707Z,17.10
2018-03-20T01:19:03.680Z,16.10
2018-03-20T01:20:03.655Z,17.30
2018-03-20T01:21:03.627Z,15.60
2018-03-20T01:22:03.588Z,17.30
2018-03-20T01:23:03.562Z,17.70
2018-03-20T01:24:03.534Z,16.60
2018-03-20T01:25:03.502Z,16.40
2018-03-20T01:26:03.470Z,17.30
2018-03-20T01:27:03.442Z,18.00
2018-03-20T01:28:03.416Z,17.50
2018-03-20T01:29:03.383Z,17.80
2018-03-20T01:30:03.360Z,18.90
2018-03-20T01:31:03.352Z,17.90
2018-03-20T01:32:03.297Z,18.50
2018-03-20T01:33:03.273Z,16.50
2018-03-20T01:34:03.235Z,17.40
2018-03-20T01:35:03.213Z,17.60
2018-03-20T01:36:03.182Z,18.80
2018-03-20T01:37:03.147Z,16.70
2018-03-20T01:38:03.125Z,22.50
2018-03-20T01:39:03.087Z,16.30
2018-03-20T01:40:03.073Z,19.50
2018-03-20T01:41:03.032Z,19.40
2018-03-20T01:42:03.005Z,18.50
2018-03-20T01:43:02.970Z,17.70
2018-03-20T01:44:02.939Z,20.30
2018-03-20T01:45:02.909Z,16.60
2018-03-20T01:46:02.885Z,16.90
2018-03-20T01:47:02.856Z,15.90
2018-03-20T01:48:02.825Z,15.10
2018-03-20T01:49:02.813Z,16.10
2018-03-20T01:50:02.776Z,17.00
2018-03-20T01:51:02.739Z,16.50
2018-03-20T01:52:02.721Z,16.10
2018-03-20T01:53:02.677Z,16.40
2018-03-20T01:54:02.646Z,16.20
2018-03-20T01:55:02.623Z,15.10
2018-03-20T01:56:02.587Z,13.50
2018-03-20T01:57:02.571Z,15.70
2018-03-20T01:58:02.533Z,15.70
2018-03-20T01:59:02.547Z,15.10
2018-03-20T02:00:02.481Z,13.20
2018-03-20T02:01:02.438Z,14.50
2018-03-20T02:02:02.410Z,13.30
2018-03-20T02:03:02.384Z,14.70
2018-03-20T02:04:02.361Z,14.90
2018-03-20T02:05:02.326Z,15.90
2018-03-20T02:06:02.300Z,14.00
2018-03-20T02:07:02.270Z,15.10
2018-03-20T02:08:02.248Z,15.20
2018-03-20T02:09:02.211Z,12.90
2018-03-20T02:10:02.178Z,14.40
2018-03-20T02:11:02.150Z,15.30
2018-03-20T02:12:02.119Z,13.80
2018-03-20T02:13:02.102Z,15.50
2018-03-20T02:14:02.061Z,15.10
2018-03-20T02:15:02.041Z,14.00
2018-03-20T02:16:02.006Z,14.90
2018-03-20T02:17:01.972Z,16.10
2018-03-20T02:18:01.939Z,14.80
2018-03-20T02:19:01.918Z,14.40
2018-03-20T02:20:01.889Z,14.40
2018-03-20T02:21:01.861Z,14.20
2018-03-20T02:22:01.831Z,16.90
2018-03-20T02:23:01.801Z,15.10
2018-03-20T02:24:01.767Z,13.70
2018-03-20T02:25:01.748Z,15.40
2018-03-20T02:26:01.708Z,13.90
2018-03-20T02:27:01.690Z,17.70
2018-03-20T02:28:01.658Z,15.00
2018-03-20T02:29:01.627Z,14.60
2018-03-20T02:30:01.598Z,14.60
2018-03-20T02:31:01.564Z,13.80
2018-03-20T02:32:01.543Z,15.50
2018-03-20T02:33:01.511Z,13.50
2018-03-20T02:34:01.477Z,13.50
2018-03-20T02:35:01.452Z,15.30
2018-03-20T02:36:01.417Z,16.00
2018-03-20T02:37:01.396Z,14.30
2018-03-20T02:38:01.373Z,15.00
2018-03-20T02:39:01.331Z,13.40
2018-03-20T02:40:01.309Z,16.90
2018-03-20T02:41:01.281Z,13.80
2018-03-20T02:42:01.245Z,15.30
2018-03-20T02:43:01.231Z,13.90
2018-03-20T02:44:01.193Z,15.00
2018-03-20T02:45:01.164Z,14.60
2018-03-20T02:46:01.134Z,16.30
2018-03-20T02:47:01.103Z,14.40
2018-03-20T02:48:01.074Z,13.60
2018-03-20T02:49:01.048Z,14.50
2018-03-20T02:50:01.017Z,13.10
2018-03-20T02:51:01.008Z,15.30
2018-03-20T02:52:00.963Z,14.90
2018-03-20T02:53:00.931Z,13.80
2018-03-20T02:54:00.906Z,15.30
2018-03-20T02:55:00.881Z,15.00
2018-03-20T02:56:00.841Z,15.20
2018-03-20T02:57:00.814Z,15.20
2018-03-20T02:58:00.787Z,15.10
2018-03-20T02:59:00.751Z,16.10
2018-03-20T03:00:00.732Z,14.10
2018-03-20T03:01:00.698Z,14.40
2018-03-20T03:02:00.664Z,15.10
2018-03-20T03:03:00.644Z,13.60
2018-03-20T03:04:00.628Z,14.70
2018-03-20T03:05:00.587Z,16.70
2018-03-20T03:06:00.561Z,14.60
2018-03-20T03:07:00.528Z,14.90
2018-03-20T03:08:00.496Z,14.40
2018-03-20T03:09:00.473Z,14.50
2018-03-20T03:10:00.434Z,15.30
2018-03-20T03:11:00.412Z,14.70
2018-03-20T03:12:00.429Z,15.20
2018-03-20T03:13:00.347Z,16.10
2018-03-20T03:14:00.327Z,15.20
2018-03-20T03:15:00.290Z,14.70
2018-03-20T03:16:00.282Z,13.70
2018-03-20T03:17:00.239Z,13.20
2018-03-20T03:18:00.208Z,15.60
2018-03-20T03:19:00.172Z,14.30
2018-03-20T03:20:00.154Z,13.80
2018-03-20T03:21:00.129Z,15.00
2018-03-20T03:22:00.092Z,13.80
2018-03-20T03:23:00.071Z,15.80
2018-03-20T03:24:00.030Z,13.90
2018-03-20T03:25:00.007Z,14.40
2018-03-20T03:25:59.975Z,15.30
2018-03-20T03:26:59.956Z,14.90
2018-03-20T03:27:59.922Z,18.40
2018-03-20T03:28:59.886Z,16.50
2018-03-20T03:29:59.870Z,18.20
2018-03-20T03:30:59.840Z,16.00
2018-03-20T03:31:59.799Z,16.00
2018-03-20T03:32:59.776Z,14.70
2018-03-20T03:33:59.748Z,14.00
2018-03-20T03:34:59.721Z,14.60
2018-03-20T03:35:59.696Z,15.10
2018-03-20T03:36:59.658Z,15.90
2018-03-20T03:37:59.630Z,14.60
2018-03-20T03:38:59.604Z,16.70
2018-03-20T03:39:59.568Z,16.40
2018-03-20T03:40:59.550Z,16.00
2018-03-20T03:41:59.520Z,15.90
2018-03-20T03:42:59.492Z,14.30
2018-03-20T03:43:59.466Z,14.90
2018-03-20T03:44:59.424Z,16.90
2018-03-20T03:45:59.402Z,16.20
2018-03-20T03:46:59.368Z,16.20
2018-03-20T03:47:59.345Z,16.10
2018-03-20T03:48:59.316Z,15.90
2018-03-20T03:49:59.280Z,14.90
2018-03-20T03:50:59.251Z,16.00
2018-03-20T03:51:59.222Z,16.30
2018-03-20T03:52:59.197Z,15.50
2018-03-20T03:53:59.164Z,17.50
2018-03-20T03:54:59.134Z,16.30
2018-03-20T03:55:59.108Z,20.20
2018-03-20T03:56:59.078Z,15.50
2018-03-20T03:57:59.048Z,17.00
2018-03-20T03:58:59.019Z,16.40
2018-03-20T03:59:58.992Z,17.80
2018-03-20T04:00:58.965Z,16.60
2018-03-20T04:01:58.937Z,16.70
2018-03-20T04:02:58.905Z,17.40
2018-03-20T04:03:58.870Z,14.80
2018-03-20T04:04:58.847Z,16.40
2018-03-20T04:05:58.825Z,15.80
2018-03-20T04:06:58.796Z,18.30
2018-03-20T04:07:58.761Z,17.40
2018-03-20T04:08:58.724Z,17.00
2018-03-20T04:09:58.691Z,16.10
2018-03-20T04:10:58.679Z,18.60
2018-03-20T04:11:58.634Z,20.80
2018-03-20T04:12:58.618Z,16.10
2018-03-20T04:13:58.580Z,16.40
2018-03-20T04:14:58.552Z,17.20
2018-03-20T04:15:58.529Z,20.00
2018-03-20T04:16:58.493Z,17.00
2018-03-20T04:17:58.462Z,18.70
2018-03-20T04:18:58.437Z,19.10
2018-03-20T04:19:58.408Z,19.40
2018-03-20T04:20:58.375Z,18.40
2018-03-20T04:21:58.346Z,19.90
2018-03-20T04:22:58.326Z,18.90
2018-03-20T04:23:58.285Z,18.70
2018-03-20T04:24:58.265Z,19.10
2018-03-20T04:25:58.231Z,20.20
2018-03-20T04:26:58.193Z,23.50
2018-03-20T04:27:58.174Z,20.90
2018-03-20T04:28:58.134Z,21.70
2018-03-20T04:29:58.109Z,20.40
2018-03-20T04:30:58.084Z,21.70
2018-03-20T04:31:58.052Z,19.10
2018-03-20T04:32:58.027Z,19.20
2018-03-20T04:33:57.998Z,22.20
2018-03-20T04:34:57.963Z,21.60
2018-03-20T04:35:57.934Z,23.40
2018-03-20T04:36:57.914Z,23.50
2018-03-20T04:37:57.876Z,22.20
2018-03-20T04:38:57.850Z,23.30
2018-03-20T04:39:57.813Z,28.00
2018-03-20T04:40:57.786Z,26.20
2018-03-20T04:41:57.761Z,25.90
2018-03-20T04:42:57.725Z,25.30
2018-03-20T04:43:57.703Z,27.20
2018-03-20T04:44:57.669Z,27.20
2018-03-20T04:45:57.644Z,24.20
2018-03-20T04:46:57.620Z,24.30
2018-03-20T04:47:57.579Z,25.50
2018-03-20T04:48:57.556Z,25.10
2018-03-20T04:49:57.526Z,25.20
2018-03-20T04:50:57.488Z,27.10
2018-03-20T04:51:57.462Z,27.50
2018-03-20T04:52:57.435Z,26.30
2018-03-20T04:53:57.398Z,25.60
2018-03-20T04:54:57.375Z,24.00
2018-03-20T04:55:57.344Z,27.20
2018-03-20T04:56:57.312Z,25.30
2018-03-20T04:57:57.289Z,22.60
2018-03-20T04:58:57.258Z,26.20
2018-03-20T04:59:57.248Z,24.90
2018-03-20T05:00:57.236Z,26.20
2018-03-20T05:01:57.160Z,26.50
2018-03-20T05:02:57.139Z,26.20
2018-03-20T05:03:57.110Z,27.20
2018-03-20T05:04:57.074Z,26.50
2018-03-20T05:05:57.059Z,24.50
2018-03-20T05:06:57.013Z,26.90
2018-03-20T05:07:56.988Z,26.00
2018-03-20T05:08:56.965Z,27.40
2018-03-20T05:09:56.924Z,26.40
2018-03-20T05:10:56.909Z,31.40
2018-03-20T05:11:56.876Z,28.40
2018-03-20T05:12:56.836Z,31.40
2018-03-20T05:13:56.817Z,30.50
2018-03-20T05:14:56.786Z,32.80
2018-03-20T05:15:56.762Z,32.50
2018-03-20T05:16:56.718Z,32.70
2018-03-20T05:17:56.695Z,34.50
2018-03-20T05:18:56.666Z,34.30
2018-03-20T05:19:56.641Z,34.20
2018-03-20T05:20:56.614Z,34.60
2018-03-20T05:21:56.583Z,32.80
2018-03-20T05:22:56.552Z,38.80
2018-03-20T05:23:56.523Z,33.70
2018-03-20T05:24:56.495Z,39.40
2018-03-20T05:25:56.464Z,35.70
2018-03-20T05:26:56.434Z,37.70
2018-03-20T05:27:56.398Z,38.60
2018-03-20T05:28:56.416Z,35.00
2018-03-20T05:29:56.353Z,38.70
2018-03-20T05:30:56.322Z,42.40
2018-03-20T05:31:56.289Z,39.80
2018-03-20T05:32:56.256Z,41.70
2018-03-20T05:33:56.223Z,40.50
2018-03-20T05:34:56.206Z,42.50
2018-03-20T05:35:56.168Z,41.50
2018-03-20T05:36:56.141Z,38.30
2018-03-20T05:37:56.116Z,43.50
2018-03-20T05:38:56.079Z,42.50
2018-03-20T05:39:56.051Z,39.30
2018-03-20T05:40:56.022Z,40.60
2018-03-20T05:41:56.006Z,41.30
2018-03-20T05:42:55.961Z,39.80
2018-03-20T05:43:55.939Z,42.40
2018-03-20T05:44:55.904Z,46.60
2018-03-20T05:45:55.879Z,44.00
2018-03-20T05:46:55.854Z,44.10
2018-03-20T05:47:55.814Z,48.30
2018-03-20T05:48:55.789Z,50.20
2018-03-20T05:49:55.760Z,51.00
2018-03-20T05:50:55.730Z,44.80
2018-03-20T05:51:55.703Z,49.30
2018-03-20T05:52:55.676Z,48.80
2018-03-20T05:53:55.640Z,47.80
2018-03-20T05:54:55.619Z,50.00
2018-03-20T05:55:55.583Z,50.00
2018-03-20T05:56:55.557Z,51.30
2018-03-20T05:57:55.528Z,44.80
2018-03-20T05:58:55.496Z,50.30
2018-03-20T05:59:55.481Z,56.00
2018-03-20T06:00:55.434Z,49.00
2018-03-20T06:01:55.403Z,52.10
2018-03-20T06:02:55.381Z,50.60
2018-03-20T06:03:55.353Z,48.80
2018-03-20T06:04:55.322Z,47.80
2018-03-20T06:05:55.286Z,52.00
2018-03-20T06:06:55.273Z,46.60
2018-03-20T06:07:55.237Z,51.90
2018-03-20T06:08:55.202Z,51.00
2018-03-20T06:09:55.171Z,57.30
2018-03-20T06:10:55.145Z,49.40
2018-03-20T06:11:55.121Z,46.90
2018-03-20T06:12:55.083Z,48.20
2018-03-20T06:13:55.060Z,46.70
2018-03-20T06:14:55.030Z,46.70
2018-03-20T06:15:54.999Z,46.50
2018-03-20T06:16:54.977Z,47.50
2018-03-20T06:17:54.939Z,46.60
2018-03-20T06:18:54.910Z,45.60
2018-03-20T06:19:54.879Z,47.00
2018-03-20T06:20:54.857Z,46.60
2018-03-20T06:21:54.837Z,45.20
2018-03-20T06:22:54.800Z,44.50
2018-03-20T06:23:54.763Z,47.50
2018-03-20T06:24:54.745Z,43.70
2018-03-20T06:25:54.706Z,44.20
2018-03-20T06:26:54.683Z,46.80
2018-03-20T06:27:54.654Z,45.00
2018-03-20T06:28:54.618Z,43.40
2018-03-20T06:29:54.588Z,47.20
2018-03-20T06:30:54.557Z,45.20
2018-03-20T06:31:54.533Z,48.30
2018-03-20T06:32:54.508Z,45.20
2018-03-20T06:33:54.469Z,42.60
2018-03-20T06:34:54.447Z,46.50
2018-03-20T06:35:54.405Z,46.60
2018-03-20T06:36:54.386Z,47.50
2018-03-20T06:37:54.348Z,44.40
2018-03-20T06:38:54.328Z,41.50
2018-03-20T06:39:54.297Z,43.10
2018-03-20T06:40:54.268Z,45.80
2018-03-20T06:41:54.236Z,42.60
2018-03-20T06:42:54.215Z,44.30
2018-03-20T06:43:54.180Z,47.10
2018-03-20T06:44:54.147Z,42.70
2018-03-20T06:45:54.119Z,48.00
2018-03-20T06:46:54.099Z,46.90
2018-03-20T06:47:54.069Z,46.20
2018-03-20T06:48:54.033Z,44.60
2018-03-20T06:49:54.010Z,45.30
2018-03-20T06:50:53.970Z,48.70
2018-03-20T06:51:53.956Z,48.70
2018-03-20T06:52:53.914Z,47.90
2018-03-20T06:53:53.885Z,48.70
2018-03-20T06:54:53.857Z,48.40
2018-03-20T06:55:53.826Z,50.80
2018-03-20T06:56:53.811Z,47.00
2018-03-20T06:57:53.779Z,53.70
2018-03-20T06:58:53.744Z,53.60
2018-03-20T06:59:53.721Z,53.40
2018-03-20T07:00:53.683Z,58.00
2018-03-20T07:01:53.665Z,52.60
2018-03-20T07:02:53.627Z,57.70
2018-03-20T07:03:53.595Z,58.40
2018-03-20T07:04:53.574Z,54.70
2018-03-20T07:05:53.537Z,54.80
2018-03-20T07:06:53.542Z,57.70
2018-03-20T07:07:53.485Z,60.20
2018-03-20T07:08:53.459Z,58.90
2018-03-20T07:09:53.428Z,58.80
2018-03-20T07:10:53.394Z,56.00
2018-03-20T07:11:53.373Z,56.80
2018-03-20T07:12:53.345Z,65.80
2018-03-20T07:13:53.306Z,61.30
2018-03-20T07:14:53.301Z,59.90
2018-03-20T07:15:53.251Z,58.60
2018-03-20T07:16:53.229Z,64.30
2018-03-20T07:17:53.205Z,58.20
2018-03-20T07:18:53.164Z,61.80
2018-03-20T07:19:53.134Z,59.50
2018-03-20T07:20:53.102Z,58.00
2018-03-20T07:21:53.074Z,57.60
2018-03-20T07:22:53.102Z,59.20
2018-03-20T07:23:53.026Z,56.00
2018-03-20T07:24:52.990Z,58.40
2018-03-20T07:25:52.974Z,57.80
2018-03-20T07:26:52.934Z,56.40
2018-03-20T07:27:52.907Z,54.60
2018-03-20T07:28:52.889Z,56.40
2018-03-20T07:29:52.847Z,61.80
2018-03-20T07:30:52.829Z,63.40
2018-03-20T07:31:52.800Z,62.00
2018-03-20T07:32:52.762Z,65.40
2018-03-20T07:33:52.740Z,62.40
2018-03-20T07:34:52.753Z,70.40
2018-03-20T07:35:52.718Z,67.80
2018-03-20T07:36:52.652Z,64.00
2018-03-20T07:37:52.620Z,62.70
2018-03-20T07:38:52.596Z,60.20
2018-03-20T07:39:52.618Z,63.60
2018-03-20T07:40:52.538Z,62.70
2018-03-20T07:41:52.505Z,68.10
2018-03-20T07:42:52.476Z,62.80
2018-03-20T07:43:52.451Z,62.30
2018-03-20T07:44:52.419Z,59.10
2018-03-20T07:45:52.389Z,61.00
2018-03-20T07:46:52.366Z,62.80
2018-03-20T07:47:52.333Z,71.00
2018-03-20T07:48:52.325Z,59.00
2018-03-20T07:49:52.354Z,60.80
2018-03-20T07:50:52.264Z,64.20
2018-03-20T07:51:52.224Z,62.70
2018-03-20T07:52:52.260Z,63.40
2018-03-20T07:53:52.218Z,61.40
2018-03-20T07:54:52.196Z,66.90
2018-03-20T07:55:52.104Z,65.00
2018-03-20T07:56:52.077Z,63.50
2018-03-20T07:57:52.052Z,62.80
2018-03-20T07:58:52.108Z,62.70
2018-03-20T07:59:51.989Z,60.30
2018-03-20T08:00:51.968Z,61.60
2018-03-20T08:01:52.036Z,67.60
2018-03-20T08:02:51.923Z,57.40
2018-03-20T08:03:51.874Z,64.90
2018-03-20T08:04:52.014Z,59.20
2018-03-20T08:05:51.826Z,62.70
2018-03-20T08:06:51.900Z,60.20
2018-03-20T08:07:51.791Z,60.40
2018-03-20T08:08:51.738Z,62.60
2018-03-20T08:09:51.705Z,62.60
2018-03-20T08:10:51.680Z,60.10
2018-03-20T08:11:51.642Z,59.20
2018-03-20T08:12:51.624Z,59.00
2018-03-20T08:13:51.591Z,53.10
2018-03-20T08:14:51.561Z,51.00
2018-03-20T08:15:51.541Z,52.90
2018-03-20T08:16:51.507Z,45.80
2018-03-20T08:17:51.518Z,48.40
2018-03-20T08:18:51.449Z,47.70
2018-03-20T08:19:51.427Z,52.70
2018-03-20T08:20:51.397Z,45.80
2018-03-20T08:21:51.361Z,48.70
2018-03-20T08:22:51.337Z,51.00
2018-03-20T08:23:51.317Z,44.80
2018-03-20T08:24:51.286Z,42.40
2018-03-20T08:25:51.249Z,43.70
2018-03-20T08:26:51.284Z,39.20
2018-03-20T08:27:51.195Z,43.00
2018-03-20T08:28:51.241Z,42.00
2018-03-20T08:29:51.146Z,34.00
2018-03-20T08:30:51.166Z,34.60
2018-03-20T08:31:51.168Z,35.00
2018-03-20T08:32:51.062Z,30.20
2018-03-20T08:33:51.028Z,32.90
2018-03-20T08:34:51.054Z,30.50
2018-03-20T08:35:51.005Z,34.00
2018-03-20T08:36:50.949Z,29.90
2018-03-20T08:37:51.145Z,28.30
2018-03-20T08:38:50.888Z,32.80
2018-03-20T08:39:51.008Z,33.90
2018-03-20T08:40:50.894Z,31.30
2018-03-20T08:41:50.865Z,31.30
2018-03-20T08:42:50.791Z,29.90
2018-03-20T08:43:50.751Z,31.70
2018-03-20T08:44:50.782Z,30.00
2018-03-20T08:45:50.771Z,28.90
2018-03-20T08:46:50.688Z,27.80
2018-03-20T08:47:50.680Z,29.30
2018-03-20T08:48:50.672Z,26.80
2018-03-20T08:49:50.639Z,29.50
2018-03-20T08:50:50.661Z,28.30
2018-03-20T08:51:50.587Z,29.50
2018-03-20T08:52:50.529Z,31.50
2018-03-20T08:53:50.480Z,27.20
2018-03-20T08:54:50.532Z,26.80
2018-03-20T08:55:50.465Z,27.60
2018-03-20T08:56:50.483Z,23.90
2018-03-20T08:57:50.409Z,27.60
2018-03-20T08:58:50.403Z,27.70
2018-03-20T08:59:50.311Z,26.80
2018-03-20T09:00:50.287Z,25.10
2018-03-20T09:01:50.252Z,22.10
2018-03-20T09:02:50.234Z,20.30
2018-03-20T09:03:50.254Z,23.70
2018-03-20T09:04:50.169Z,23.90
2018-03-20T09:05:50.214Z,23.00
2018-03-20T09:06:50.185Z,23.70
2018-03-20T09:07:50.146Z,22.10
2018-03-20T09:08:50.111Z,23.20
2018-03-20T09:09:50.086Z,22.30
2018-03-20T09:10:50.072Z,22.50
2018-03-20T09:11:49.978Z,18.10
2018-03-20T09:12:49.972Z,18.80
2018-03-20T09:13:50.012Z,17.10
2018-03-20T09:14:49.893Z,17.20
2018-03-20T09:15:49.938Z,18.80
2018-03-20T09:16:49.843Z,15.80
2018-03-20T09:17:49.816Z,17.20
2018-03-20T09:18:49.786Z,15.90
2018-03-20T09:19:49.751Z,12.10
2018-03-20T09:20:49.733Z,13.90
2018-03-20T09:21:49.699Z,15.90
2018-03-20T09:22:49.682Z,19.70
2018-03-20T09:23:49.652Z,18.50
2018-03-20T09:24:49.686Z,15.90
2018-03-20T09:25:49.647Z,15.30
2018-03-20T09:26:49.619Z,14.40
2018-03-20T09:27:49.571Z,15.00
2018-03-20T09:28:49.618Z,14.20
2018-03-20T09:29:49.575Z,13.20
2018-03-20T09:30:49.488Z,14.80
2018-03-20T09:31:49.420Z,12.30
2018-03-20T09:32:49.404Z,13.50
2018-03-20T09:33:49.403Z,11.50
2018-03-20T09:34:49.431Z,14.10
2018-03-20T09:35:49.538Z,12.30
2018-03-20T09:36:49.436Z,10.50
2018-03-20T09:37:49.277Z,11.90
2018-03-20T09:38:49.304Z,13.50
2018-03-20T09:39:49.212Z,11.20
2018-03-20T09:40:49.288Z,13.00
2018-03-20T09:41:49.151Z,12.20
2018-03-20T09:42:49.241Z,9.00
2018-03-20T09:43:49.108Z,7.90
2018-03-20T09:44:49.068Z,7.90
2018-03-20T09:45:49.045Z,7.90
2018-03-20T09:46:49.009Z,6.40
2018-03-20T09:47:49.023Z,7.90
2018-03-20T09:48:48.955Z,7.80
2018-03-20T09:49:48.962Z,8.90
2018-03-20T09:50:48.902Z,7.70
2018-03-20T09:51:48.895Z,6.80
2018-03-20T09:52:48.857Z,7.70
2018-03-20T09:53:48.870Z,8.40
2018-03-20T09:54:48.792Z,7.90
2018-03-20T09:55:48.768Z,7.70
2018-03-20T09:56:48.789Z,5.70
2018-03-20T09:57:48.708Z,7.50
2018-03-20T09:58:48.684Z,7.00
2018-03-20T09:59:48.680Z,6.30
2018-03-20T10:00:48.629Z,5.70
2018-03-20T10:01:48.659Z,7.80
2018-03-20T10:02:48.574Z,6.90
2018-03-20T10:03:48.543Z,5.00
2018-03-20T10:04:48.504Z,6.60
2018-03-20T10:05:48.479Z,7.00
2018-03-20T10:06:48.537Z,9.40
2018-03-20T10:07:48.454Z,7.30
2018-03-20T10:08:48.426Z,7.10
2018-03-20T10:09:48.427Z,7.70
2018-03-20T10:10:48.352Z,6.70
2018-03-20T10:11:48.318Z,8.50
2018-03-20T10:12:48.291Z,7.90
2018-03-20T10:13:48.292Z,7.20
2018-03-20T10:14:48.290Z,8.00
2018-03-20T10:15:48.229Z,6.90
2018-03-20T10:16:48.214Z,5.90
2018-03-20T10:17:48.199Z,8.60
2018-03-20T10:18:48.152Z,6.30
2018-03-20T10:19:48.098Z,6.30
2018-03-20T10:20:48.070Z,7.80
2018-03-20T10:21:48.037Z,9.00
2018-03-20T10:22:48.022Z,6.60
2018-03-20T10:23:48.048Z,7.30
2018-03-20T10:24:47.961Z,6.00
2018-03-20T10:25:47.975Z,7.40
2018-03-20T10:26:47.901Z,6.30
2018-03-20T10:27:47.871Z,6.90
2018-03-20T10:28:47.844Z,6.20
2018-03-20T10:29:47.848Z,4.80
2018-03-20T10:30:47.791Z,7.10
2018-03-20T10:31:47.797Z,7.50
2018-03-20T10:32:47.729Z,6.20
2018-03-20T10:33:47.715Z,5.30
2018-03-20T10:34:47.682Z,4.80
2018-03-20T10:35:47.657Z,6.20
2018-03-20T10:36:47.626Z,4.60
2018-03-20T10:37:47.595Z,5.00
2018-03-20T10:38:47.572Z,5.20
2018-03-20T10:39:47.537Z,6.60
2018-03-20T10:40:47.516Z,4.90
2018-03-20T10:41:47.488Z,5.80
2018-03-20T10:42:47.448Z,5.80
2018-03-20T10:43:47.481Z,4.00
2018-03-20T10:44:47.416Z,4.10
2018-03-20T10:45:47.367Z,6.10
2018-03-20T10:46:47.348Z,4.30
2018-03-20T10:47:47.323Z,3.90
2018-03-20T10:48:47.293Z,3.70
2018-03-20T10:49:47.266Z,5.20
2018-03-20T10:50:47.243Z,3.60
2018-03-20T10:51:47.204Z,5.90
2018-03-20T10:52:47.183Z,5.20
2018-03-20T10:53:47.153Z,4.30
2018-03-20T10:54:47.124Z,4.50
2018-03-20T10:55:47.095Z,5.70
2018-03-20T10:56:47.067Z,4.90
2018-03-20T10:57:47.042Z,4.40
2018-03-20T10:58:47.011Z,5.40
2018-03-20T10:59:46.985Z,3.70
2018-03-20T11:00:46.956Z,4.80
2018-03-20T11:01:46.930Z,5.40
2018-03-20T11:02:46.904Z,5.00
2018-03-20T11:03:46.954Z,4.10
2018-03-20T11:04:46.856Z,4.40
2018-03-20T11:05:46.844Z,4.30
2018-03-20T11:06:46.800Z,3.50
2018-03-20T11:07:46.763Z,4.20
2018-03-20T11:08:46.743Z,4.00
2018-03-20T11:09:46.713Z,4.30
2018-03-20T11:10:46.678Z,4.40
2018-03-20T11:11:46.649Z,5.90
2018-03-20T11:12:46.652Z,5.50
2018-03-20T11:13:46.648Z,3.90
2018-03-20T11:14:46.622Z,3.90
2018-03-20T11:15:46.598Z,3.50
2018-03-20T11:16:46.565Z,4.30
2018-03-20T11:17:46.484Z,4.30
2018-03-20T11:18:46.466Z,5.60
2018-03-20T11:19:46.484Z,4.60
2018-03-20T11:20:46.402Z,4.70
2018-03-20T11:21:46.376Z,2.80
2018-03-20T11:22:46.379Z,4.50
2018-03-20T11:23:46.384Z,4.40
2018-03-20T11:24:46.293Z,3.20
2018-03-20T11:25:46.266Z,2.90
2018-03-20T11:26:46.274Z,3.70
2018-03-20T11:27:46.212Z,4.00
2018-03-20T11:28:46.205Z,3.40
2018-03-20T11:29:46.153Z,2.90
2018-03-20T11:30:46.178Z,4.60
2018-03-20T11:31:46.097Z,2.90
2018-03-20T11:32:46.078Z,3.10
2018-03-20T11:33:46.111Z,3.00
2018-03-20T11:34:46.013Z,4.30
2018-03-20T11:35:45.990Z,4.60
2018-03-20T11:36:45.967Z,4.80
2018-03-20T11:37:45.951Z,2.70
2018-03-20T11:38:45.913Z,4.50
2018-03-20T11:39:45.975Z,4.10
2018-03-20T11:40:45.895Z,3.80
2018-03-20T11:41:45.877Z,3.10
2018-03-20T11:42:45.833Z,2.80
2018-03-20T11:43:45.774Z,3.20
2018-03-20T11:44:45.748Z,3.70
2018-03-20T11:45:45.766Z,5.20
2018-03-20T11:46:45.687Z,4.20
2018-03-20T11:47:45.660Z,3.80
2018-03-20T11:48:45.717Z,3.70
2018-03-20T11:49:45.643Z,5.10
2018-03-20T11:50:45.582Z,4.00
2018-03-20T11:51:45.558Z,4.40
2018-03-20T11:52:45.563Z,4.80
2018-03-20T11:53:45.518Z,3.30
2018-03-20T11:54:45.507Z,2.60
2018-03-20T11:55:45.452Z,3.70
2018-03-20T11:56:45.448Z,4.80
2018-03-20T11:57:45.431Z,4.20
2018-03-20T11:58:45.423Z,4.00
2018-03-20T11:59:45.369Z,2.40
2018-03-20T12:00:45.312Z,4.10
2018-03-20T12:01:45.280Z,2.80
2018-03-20T12:02:45.246Z,4.80
2018-03-20T12:03:45.229Z,4.90
2018-03-20T12:04:45.195Z,3.10
2018-03-20T12:05:45.173Z,2.90
2018-03-20T12:06:45.133Z,3.30
2018-03-20T12:07:45.111Z,3.60
2018-03-20T12:08:45.089Z,3.20
2018-03-20T12:09:45.112Z,2.40
2018-03-20T12:10:45.026Z,4.40
2018-03-20T12:11:45.002Z,2.60
2018-03-20T12:12:45.062Z,4.90
2018-03-20T12:13:44.946Z,3.60
2018-03-20T12:14:44.946Z,5.10
2018-03-20T12:15:44.894Z,3.20
2018-03-20T12:16:44.917Z,3.70
2018-03-20T12:17:44.840Z,3.70
2018-03-20T12:18:44.851Z,4.10
2018-03-20T12:19:44.780Z,3.90
2018-03-20T12:20:44.755Z,3.40
2018-03-20T12:21:44.790Z,3.30
2018-03-20T12:22:44.703Z,4.90
2018-03-20T12:23:44.680Z,1.80
2018-03-20T12:24:44.642Z,3.50
2018-03-20T12:25:44.621Z,3.70
2018-03-20T12:26:44.632Z,3.00
2018-03-20T12:27:44.563Z,3.90
2018-03-20T12:28:44.593Z,4.70
2018-03-20T12:29:44.512Z,5.40
2018-03-20T12:30:44.485Z,4.80
2018-03-20T12:31:44.525Z,3.90
2018-03-20T12:32:44.469Z,2.90
2018-03-20T12:33:44.461Z,2.40
2018-03-20T12:34:44.398Z,4.30
2018-03-20T12:35:45.381Z,3.20
2018-03-20T12:36:44.422Z,5.80
2018-03-20T12:37:44.342Z,2.90
2018-03-20T12:38:44.264Z,3.80
2018-03-20T12:39:44.230Z,3.10
2018-03-20T12:40:44.218Z,2.30
2018-03-20T12:41:44.187Z,3.60
2018-03-20T12:42:44.149Z,4.10
2018-03-20T12:43:44.128Z,2.90
2018-03-20T12:44:44.099Z,4.60
2018-03-20T12:45:44.066Z,3.90
2018-03-20T12:46:44.117Z,2.70
2018-03-20T12:47:44.017Z,4.90
2018-03-20T12:48:43.996Z,3.70
2018-03-20T12:49:43.965Z,3.10
2018-03-20T12:50:43.938Z,3.00
2018-03-20T12:51:43.907Z,3.50
2018-03-20T12:52:43.883Z,3.50
2018-03-20T12:53:43.858Z,3.60
2018-03-20T12:54:43.830Z,3.20
2018-03-20T12:55:43.810Z,3.50
2018-03-20T12:56:43.878Z,3.00
2018-03-20T12:57:43.828Z,2.20
2018-03-20T12:58:43.724Z,3.40